Mount Holly, New Jersey
Current Conditions -  °F | °C
As of 3:54 AM on Thursday 18 Dec 2014 (Local Time) from KVAY Reporting Station
Few Clouds Few Clouds  
Wind Chill: -2°   Ceiling: Unl
Heat Index:   Visibility: 10mi
Dew Point: -6°   Wind: 9mph
Humidity: 55%   Direction: 290°WNW
Pressure: 29.99"   Gusts: 18mph
Location:  39.99°N, 74.79°W
Report Text: KVAY 180854Z AUTO 29008G16KT 10SM FEW043 02/M06 A2999 RMK AO2 SLP156 T00221061 51010
Loading
Personal Weather Stations






























Interactive Weather Map New forecast layout! Learn more

10-Day Weather Forecast

Advertisements
Track Severe Weather on mobile